createdAt,value
2023-03-29T00:28:21.956Z,972.39
2023-03-29T00:58:22.144Z,971.87
2023-03-29T01:28:21.725Z,971.81
2023-03-29T01:58:21.400Z,971.66
2023-03-29T02:28:21.515Z,971.64
2023-03-29T02:58:21.954Z,971.71
2023-03-29T03:28:21.580Z,971.59
2023-03-29T03:58:26.488Z,971.54
2023-03-29T04:28:21.621Z,971.64
2023-03-29T04:58:23.072Z,971.62
2023-03-29T05:28:21.476Z,971.77
2023-03-29T05:58:21.339Z,971.86
2023-03-29T06:28:21.826Z,971.91
2023-03-29T07:28:21.322Z,971.98
2023-03-29T07:58:21.854Z,972.37
2023-03-29T08:28:21.741Z,972.42
2023-03-29T08:58:21.319Z,972.39
2023-03-29T09:28:21.216Z,972.33
2023-03-29T09:58:21.691Z,972.28
2023-03-29T10:28:20.830Z,972.25
2023-03-29T10:58:21.172Z,971.81
2023-03-29T11:28:21.123Z,971.48
2023-03-29T11:58:21.283Z,971.46
2023-03-29T12:28:20.465Z,971.19
2023-03-29T12:58:21.072Z,970.84
2023-03-29T13:28:20.593Z,970.52
2023-03-29T13:58:20.521Z,970.14
2023-03-29T14:28:20.712Z,969.82
2023-03-29T14:58:20.521Z,969.52
2023-03-29T15:28:20.514Z,969.22
2023-03-29T15:58:20.820Z,968.94
2023-03-29T16:28:20.306Z,968.76
2023-03-29T16:58:20.237Z,968.49
2023-03-29T17:58:20.176Z,968.52
2023-03-29T18:28:20.813Z,968.84
2023-03-29T18:58:20.420Z,968.85
2023-03-29T19:28:20.244Z,969.03
2023-03-29T19:58:20.176Z,968.9
2023-03-29T20:28:20.028Z,968.94
2023-03-29T20:58:20.152Z,968.73
2023-03-29T21:28:19.984Z,968.58
2023-03-29T21:58:20.278Z,968.41
2023-03-29T22:28:19.526Z,968.13
2023-03-29T23:28:19.758Z,968.32
2023-03-29T23:58:19.605Z,967.62
